Time;durP1;ratioP1;P1;durP2;ratioP2;P2;SDS_P1;SDS_P2;PMS_P1;PMS_P2;Temp;Humidity;BMP_temperature;BMP_pressure;BME280_temperature;BME280_humidity;BME280_pressure;Samples;Min_cycle;Max_cycle;Signal;HPM_P1;HPM_P2
2022/09/30 00:01:01;;;;;;;4.20;3.70;;;17.50;62.20;18.80;99957.00;;;;4970035;28;20205;-44
2022/09/30 00:03:27;;;;;;;4.13;3.70;;;17.50;63.20;18.80;99965.00;;;;4971188;28;20197;-44
2022/09/30 00:06:00;;;;;;;3.43;3.13;;;17.50;62.30;18.80;99968.00;;;;4971445;28;20205;-45
2022/09/30 00:08:26;;;;;;;3.80;3.50;;;17.50;62.20;18.80;99960.00;;;;4971278;28;20192;-44
2022/09/30 00:11:03;;;;;;;3.80;3.40;;;17.50;62.10;18.70;99973.00;;;;4971218;28;20650;-44
2022/09/30 00:13:30;;;;;;;3.90;3.60;;;17.40;62.00;18.70;99970.00;;;;4971061;28;20191;-44
2022/09/30 00:15:56;;;;;;;3.73;3.40;;;17.40;62.00;18.70;99968.00;;;;4971601;28;20228;-44
2022/09/30 00:18:22;;;;;;;3.77;3.47;;;17.40;62.00;18.70;99968.00;;;;4971723;28;20829;-44
2022/09/30 00:20:48;;;;;;;3.63;3.33;;;17.40;62.00;18.70;99976.00;;;;4971489;28;20258;-44
2022/09/30 00:23:13;;;;;;;4.10;3.73;;;17.40;62.00;18.70;99978.00;;;;4970849;28;20195;-45
2022/09/30 00:25:39;;;;;;;3.87;3.50;;;17.30;61.90;18.60;99975.00;;;;4970737;28;20251;-45
2022/09/30 00:28:06;;;;;;;3.60;3.30;;;17.30;61.80;18.60;99968.00;;;;4970959;28;20222;-45
2022/09/30 00:30:33;;;;;;;3.90;3.60;;;17.30;61.80;18.60;99985.00;;;;4971017;28;20172;-44
2022/09/30 00:32:59;;;;;;;3.63;3.33;;;17.30;61.80;18.60;100003.00;;;;4970898;28;20179;-44
2022/09/30 00:35:25;;;;;;;3.80;3.43;;;17.30;61.80;18.60;100004.00;;;;4970598;28;20569;-43
2022/09/30 00:37:51;;;;;;;3.90;3.60;;;17.30;61.70;18.50;100002.00;;;;4970761;28;20206;-45
2022/09/30 00:40:19;;;;;;;3.50;3.20;;;17.20;61.60;18.50;99989.00;;;;4970886;28;20293;-44
2022/09/30 00:42:45;;;;;;;3.83;3.50;;;17.20;61.60;18.50;99989.00;;;;4970480;28;20302;-45
2022/09/30 00:45:12;;;;;;;3.60;3.30;;;17.20;61.60;18.50;99987.00;;;;4970171;28;20207;-44
2022/09/30 00:48:07;;;;;;;3.60;3.30;;;17.20;61.50;18.50;99986.00;;;;4969504;28;20200;-45
2022/09/30 00:50:37;;;;;;;3.90;3.60;;;17.20;61.50;18.50;99986.00;;;;4968885;28;20183;-44
2022/09/30 00:53:07;;;;;;;3.23;3.03;;;17.20;61.90;18.40;99986.00;;;;4968976;28;20257;-45
2022/09/30 00:55:45;;;;;;;3.67;3.27;;;17.20;61.50;18.40;99990.00;;;;4970224;28;20201;-45
2022/09/30 00:58:17;;;;;;;3.73;3.30;;;17.20;61.50;18.40;99986.00;;;;4970347;28;20176;-45
2022/09/30 01:00:43;;;;;;;3.60;3.30;;;17.20;61.40;18.40;99967.00;;;;4969345;28;20242;-46
2022/09/30 01:03:09;;;;;;;3.70;3.40;;;17.10;61.30;18.40;99983.00;;;;4968820;28;20233;-44
2022/09/30 01:05:35;;;;;;;3.70;3.40;;;17.10;61.40;18.30;99988.00;;;;4968591;28;20586;-45
2022/09/30 01:08:02;;;;;;;3.80;3.50;;;17.10;61.40;18.30;99978.00;;;;4970469;28;20786;-44
2022/09/30 01:10:28;;;;;;;3.43;3.13;;;17.00;61.20;18.30;99983.00;;;;4969160;28;20182;-43
2022/09/30 01:12:54;;;;;;;3.53;3.23;;;17.00;61.10;18.30;99991.00;;;;4970028;28;20791;-44
2022/09/30 01:15:21;;;;;;;3.67;3.37;;;17.10;61.20;18.30;99977.00;;;;4968131;28;20214;-44
2022/09/30 01:18:18;;;;;;;3.77;3.40;;;17.00;61.10;18.20;99989.00;;;;4968556;28;20169;-46
2022/09/30 01:21:22;;;;;;;3.50;3.20;;;17.00;61.20;18.20;99977.00;;;;4963632;28;20195;-43
2022/09/30 01:24:26;;;;;;;3.60;3.30;;;17.00;61.10;18.20;99993.00;;;;4968170;28;20161;-45
2022/09/30 01:27:19;;;;;;;3.70;3.40;;;16.90;61.00;18.20;99988.00;;;;4968962;28;20237;-44
2022/09/30 01:29:59;;;;;;;3.57;3.20;;;16.90;61.00;18.10;100003.00;;;;4969153;28;20180;-45
2022/09/30 01:33:05;;;;;;;3.60;3.30;;;16.90;61.70;18.10;100003.00;;;;4969087;28;20220;-44
2022/09/30 01:35:56;;;;;;;3.60;3.30;;;16.90;61.70;18.10;100008.00;;;;4968493;28;20338;-45
2022/09/30 01:38:49;;;;;;;3.57;3.27;;;16.90;60.90;18.00;100003.00;;;;4968878;28;20162;-43
2022/09/30 01:41:23;;;;;;;3.70;3.40;;;16.90;60.90;18.00;99998.00;;;;4968661;28;20193;-44
2022/09/30 01:44:19;;;;;;;3.47;3.17;;;16.80;60.80;18.00;99992.00;;;;4968542;28;20158;-44
2022/09/30 01:47:00;;;;;;;3.37;3.17;;;16.80;60.90;18.00;100002.00;;;;4968632;28;20161;-45
2022/09/30 01:49:58;;;;;;;3.47;3.17;;;16.80;60.80;18.00;100000.00;;;;4968833;28;20517;-42
2022/09/30 01:52:49;;;;;;;3.20;2.90;;;16.80;60.80;17.90;99998.00;;;;4952294;28;20223;-44
2022/09/30 01:55:30;;;;;;;3.37;3.07;;;16.70;60.80;17.90;99992.00;;;;4968061;28;20192;-45
2022/09/30 01:58:04;;;;;;;3.50;3.20;;;16.70;60.70;17.90;100008.00;;;;4968365;28;20188;-43
2022/09/30 02:00:31;;;;;;;3.67;3.37;;;16.70;60.80;17.90;99996.00;;;;4968375;28;20166;-43
2022/09/30 02:03:08;;;;;;;3.40;3.10;;;16.70;60.80;17.90;100004.00;;;;4969545;28;20289;-43
2022/09/30 02:06:01;;;;;;;3.27;3.07;;;16.70;60.80;17.90;99945.00;;;;4971625;28;20250;-44
2022/09/30 02:08:52;;;;;;;4.50;3.07;;;16.70;60.70;17.80;99996.00;;;;4972315;28;20150;-44
2022/09/30 02:11:27;;;;;;;3.13;2.90;;;16.70;60.70;17.80;100003.00;;;;4972099;28;20214;-42
2022/09/30 02:14:02;;;;;;;3.70;3.30;;;16.60;60.60;17.80;100005.00;;;;4971825;28;20157;-46
2022/09/30 02:16:38;;;;;;;3.23;2.93;;;16.60;60.60;17.80;100004.00;;;;4972056;28;20261;-45
2022/09/30 02:19:23;;;;;;;3.70;3.40;;;16.60;60.50;17.80;100008.00;;;;4972020;28;20239;-46
2022/09/30 02:22:15;;;;;;;3.27;3.03;;;16.60;60.60;17.70;100007.00;;;;4971870;28;20200;-45
2022/09/30 02:24:42;;;;;;;3.40;3.10;;;16.50;60.50;17.70;100003.00;;;;4971152;28;20181;-44
2022/09/30 02:27:24;;;;;;;3.40;3.10;;;16.50;60.50;17.70;100005.00;;;;4971712;28;20248;-45
2022/09/30 02:29:55;;;;;;;3.30;3.00;;;16.50;60.50;17.60;100005.00;;;;4971833;28;20182;-45
2022/09/30 02:32:28;;;;;;;3.20;2.90;;;16.50;60.50;17.60;100010.00;;;;4971925;28;20166;-45
2022/09/30 02:34:59;;;;;;;3.30;3.00;;;16.50;60.50;17.60;100010.00;;;;4971623;28;20559;-45
2022/09/30 02:37:40;;;;;;;3.33;3.03;;;16.50;60.60;17.60;100020.00;;;;4971752;28;20161;-44
2022/09/30 02:40:14;;;;;;;3.53;3.23;;;16.50;60.50;17.60;100010.00;;;;4971917;28;20183;-45
2022/09/30 02:42:40;;;;;;;3.43;3.07;;;16.40;60.20;17.60;100009.00;;;;4971753;28;20188;-44
2022/09/30 02:45:09;;;;;;;3.43;3.13;;;16.50;60.40;17.60;99996.00;;;;4955235;28;20196;-45
2022/09/30 02:48:05;;;;;;;3.43;3.03;;;16.40;60.30;17.50;100011.00;;;;4956005;28;20166;-44
2022/09/30 02:50:45;;;;;;;3.40;3.10;;;16.40;60.30;17.50;100023.00;;;;4971571;28;20179;-44
2022/09/30 02:53:39;;;;;;;3.17;2.93;;;16.40;60.30;17.50;100016.00;;;;4971451;28;20164;-44
2022/09/30 02:56:23;;;;;;;3.30;2.87;;;16.40;60.40;17.50;100031.00;;;;4972390;28;20201;-43
2022/09/30 02:58:50;;;;;;;3.50;3.20;;;16.30;60.30;17.50;100019.00;;;;4971846;28;20169;-44
2022/09/30 03:01:15;;;;;;;3.20;2.90;;;16.30;60.60;17.40;100020.00;;;;4971424;28;20192;-44
2022/09/30 03:03:56;;;;;;;3.33;3.10;;;16.30;60.20;17.40;100017.00;;;;4970900;28;20287;-45
2022/09/30 03:06:22;;;;;;;3.20;3.00;;;16.30;60.20;17.40;100023.00;;;;4971123;28;20276;-43
2022/09/30 03:08:48;;;;;;;3.30;3.00;;;16.30;60.20;17.40;100012.00;;;;4971068;28;20316;-44
2022/09/30 03:11:19;;;;;;;3.30;3.10;;;16.30;60.20;17.40;100022.00;;;;4971057;28;20209;-43
2022/09/30 03:14:01;;;;;;;3.10;2.90;;;16.20;60.20;17.40;100020.00;;;;4970670;28;20642;-43
2022/09/30 03:16:49;;;;;;;3.30;3.03;;;16.20;60.00;17.40;100029.00;;;;4970997;28;20751;-43
2022/09/30 03:19:30;;;;;;;3.37;2.93;;;16.20;60.20;17.30;100030.00;;;;4969442;28;20688;-44
2022/09/30 03:22:30;;;;;;;3.10;2.90;;;16.10;60.00;17.30;100030.00;;;;4967979;28;20547;-44
2022/09/30 03:25:20;;;;;;;3.30;3.00;;;16.20;60.10;17.30;100034.00;;;;4971372;28;20189;-44
2022/09/30 03:28:18;;;;;;;6.30;2.90;;;16.20;60.00;17.30;100037.00;;;;4970307;28;20550;-44
2022/09/30 03:31:02;;;;;;;10.97;3.53;;;16.20;60.30;17.30;100026.00;;;;4970052;28;20183;-44
2022/09/30 03:33:50;;;;;;;6.20;3.40;;;16.10;59.60;17.20;100036.00;;;;4970377;28;20181;-42
2022/09/30 03:36:35;;;;;;;9.17;3.43;;;16.10;60.10;17.20;100033.00;;;;4970435;28;20196;-44
2022/09/30 03:39:25;;;;;;;10.27;3.30;;;16.10;60.30;17.20;100046.00;;;;4970695;28;20768;-42
2022/09/30 03:42:09;;;;;;;7.37;3.53;;;16.10;60.10;17.10;100038.00;;;;4957301;28;20666;-45
2022/09/30 03:44:52;;;;;;;12.97;3.13;;;16.10;60.50;17.10;100037.00;;;;4970066;28;20189;-44
2022/09/30 03:47:17;;;;;;;6.27;3.27;;;16.10;60.90;17.10;100041.00;;;;4970830;28;20157;-44
2022/09/30 03:49:51;;;;;;;8.70;3.13;;;16.00;60.70;17.10;99963.00;;;;4969873;28;20612;-44
2022/09/30 03:52:17;;;;;;;5.33;3.20;;;16.00;60.60;17.10;100038.00;;;;4970684;28;20169;-45
2022/09/30 03:54:55;;;;;;;5.83;3.20;;;16.00;60.80;17.00;100048.00;;;;4970424;28;20201;-44
2022/09/30 03:57:21;;;;;;;6.17;3.40;;;15.90;60.50;17.10;100053.00;;;;4970474;28;20271;-44
2022/09/30 03:59:46;;;;;;;4.93;3.27;;;16.00;60.80;17.10;100050.00;;;;4971301;28;20252;-44
2022/09/30 04:02:12;;;;;;;4.80;3.30;;;15.90;60.70;17.00;100051.00;;;;4970110;28;20259;-44
2022/09/30 04:04:39;;;;;;;4.40;3.30;;;15.90;60.70;17.00;100062.00;;;;4971587;28;20239;-43
2022/09/30 04:07:06;;;;;;;5.33;3.20;;;15.90;60.70;17.00;100063.00;;;;4971908;28;20263;-44
2022/09/30 04:09:31;;;;;;;3.07;2.77;;;15.80;60.50;17.00;100074.00;;;;4971421;28;20252;-44
2022/09/30 04:11:57;;;;;;;3.83;2.90;;;15.80;60.40;17.00;100079.00;;;;4971643;28;20181;-44
2022/09/30 04:14:23;;;;;;;6.07;3.20;;;15.80;60.30;17.00;100073.00;;;;4971391;28;20709;-44
2022/09/30 04:16:48;;;;;;;3.20;2.90;;;15.80;60.30;16.90;100078.00;;;;4971785;28;20255;-44
2022/09/30 04:19:14;;;;;;;3.90;3.00;;;15.80;60.30;16.90;100085.00;;;;4971165;28;20177;-45
2022/09/30 04:21:40;;;;;;;3.27;2.70;;;15.80;60.20;16.90;100003.00;;;;4971398;28;20173;-44
2022/09/30 04:24:06;;;;;;;5.60;3.20;;;15.80;60.20;16.60;100068.00;;;;4971119;28;20262;-44
2022/09/30 04:26:32;;;;;;;3.50;2.87;;;15.80;60.10;16.90;100083.00;;;;4970923;28;20192;-43
2022/09/30 04:28:57;;;;;;;3.50;3.03;;;15.80;60.20;16.80;100097.00;;;;4970957;28;20596;-42
2022/09/30 04:31:23;;;;;;;3.77;3.17;;;15.80;60.10;16.80;100095.00;;;;4970811;28;20654;-42
2022/09/30 04:33:49;;;;;;;7.83;3.30;;;15.80;60.10;16.80;100093.00;;;;4969788;28;20190;-44
2022/09/30 04:36:15;;;;;;;6.63;3.20;;;15.70;60.10;16.80;100090.00;;;;4971049;28;20597;-43
2022/09/30 04:38:41;;;;;;;4.00;3.23;;;15.70;60.00;16.80;100089.00;;;;4971024;28;20165;-42
2022/09/30 04:41:07;;;;;;;5.83;2.97;;;15.70;60.30;16.80;100098.00;;;;4970264;28;20173;-44
2022/09/30 04:43:33;;;;;;;6.07;3.10;;;15.70;60.50;16.80;100110.00;;;;4970979;28;20236;-43
2022/09/30 04:45:59;;;;;;;7.13;3.20;;;15.70;60.70;16.80;100108.00;;;;4971483;28;20809;-43
2022/09/30 04:48:24;;;;;;;8.00;3.43;;;15.70;60.70;16.70;100115.00;;;;4969737;28;20169;-43
2022/09/30 04:50:50;;;;;;;24.97;4.43;;;15.70;60.50;16.70;100127.00;;;;4970239;28;20177;-43
2022/09/30 04:53:18;;;;;;;33.83;5.90;;;15.70;60.50;16.70;100110.00;;;;4970808;28;20173;-43
2022/09/30 04:55:44;;;;;;;19.83;5.20;;;15.60;60.50;16.70;100115.00;;;;4970863;28;20200;-44
2022/09/30 04:58:10;;;;;;;19.70;5.00;;;15.60;60.50;16.70;100115.00;;;;4970602;28;20679;-43
2022/09/30 05:00:36;;;;;;;13.70;4.30;;;15.60;60.50;16.70;100124.00;;;;4970338;28;20173;-44
2022/09/30 05:03:02;;;;;;;19.70;4.97;;;15.60;60.60;16.70;100117.00;;;;4970730;28;20201;-43
2022/09/30 05:05:28;;;;;;;9.27;4.33;;;15.60;60.70;16.70;100122.00;;;;4970434;28;20197;-44
2022/09/30 05:08:02;;;;;;;11.80;4.10;;;15.60;60.60;16.60;100118.00;;;;4971000;28;20235;-44
2022/09/30 05:10:28;;;;;;;12.43;4.60;;;15.50;60.50;16.60;100123.00;;;;4985936;28;20176;-45
2022/09/30 05:12:54;;;;;;;13.90;4.40;;;15.50;60.40;16.60;100124.00;;;;4989828;28;20198;-45
2022/09/30 05:15:20;;;;;;;9.77;4.00;;;15.50;60.40;16.60;100050.00;;;;4989417;28;20192;-45
2022/09/30 05:17:48;;;;;;;15.00;3.97;;;15.50;60.30;16.60;100124.00;;;;4989976;28;20195;-44
2022/09/30 05:20:14;;;;;;;9.80;4.27;;;15.50;60.40;16.60;100122.00;;;;4988949;28;20187;-44
2022/09/30 05:22:39;;;;;;;7.00;3.80;;;15.50;60.30;16.60;100137.00;;;;4989680;28;20196;-43
2022/09/30 05:25:06;;;;;;;9.37;3.67;;;15.50;60.40;16.60;100134.00;;;;4989424;28;20196;-43
2022/09/30 05:27:32;;;;;;;10.43;4.27;;;15.60;60.20;16.60;100136.00;;;;4989682;28;20176;-44
2022/09/30 05:29:57;;;;;;;7.20;3.73;;;15.50;60.00;16.50;100148.00;;;;4988409;28;20533;-43
2022/09/30 05:32:24;;;;;;;7.27;3.80;;;15.50;60.10;16.50;100140.00;;;;4989145;28;20258;-44
2022/09/30 05:34:49;;;;;;;7.50;3.60;;;15.50;60.30;16.50;100126.00;;;;4989382;28;20195;-45
2022/09/30 05:37:15;;;;;;;7.83;3.60;;;15.50;60.00;16.50;100131.00;;;;4988323;28;20176;-43
2022/09/30 05:39:41;;;;;;;4.97;3.37;;;15.50;60.30;16.50;100127.00;;;;4989597;28;20172;-44
2022/09/30 05:42:07;;;;;;;5.63;3.33;;;15.50;60.30;16.50;100140.00;;;;4989438;28;20196;-44
2022/09/30 05:44:33;;;;;;;5.43;3.37;;;15.50;60.30;16.50;100137.00;;;;4989189;28;20568;-43
2022/09/30 05:46:58;;;;;;;5.30;3.40;;;15.50;60.10;16.50;100142.00;;;;4989362;28;20164;-44
2022/09/30 05:49:25;;;;;;;4.80;3.60;;;15.50;60.30;16.50;100148.00;;;;4989323;28;20226;-43
2022/09/30 05:51:51;;;;;;;5.30;3.30;;;15.50;60.40;16.50;100154.00;;;;4988583;28;20699;-44
2022/09/30 05:54:17;;;;;;;5.23;3.20;;;15.40;60.30;16.50;100158.00;;;;4989416;28;20561;-44
2022/09/30 05:56:43;;;;;;;5.70;3.33;;;15.50;60.40;16.50;100172.00;;;;4989120;28;20188;-45
2022/09/30 05:59:09;;;;;;;6.83;3.13;;;15.50;60.40;16.50;100170.00;;;;4989197;28;20788;-43
2022/09/30 06:01:34;;;;;;;5.47;3.33;;;15.40;60.40;16.50;100170.00;;;;4988583;28;20175;-45
2022/09/30 06:04:00;;;;;;;4.87;3.40;;;15.50;60.50;16.50;100178.00;;;;4971612;28;20164;-45
2022/09/30 06:06:26;;;;;;;3.97;2.97;;;15.50;60.40;16.50;100182.00;;;;4989027;28;20224;-43
2022/09/30 06:08:52;;;;;;;5.43;2.93;;;15.50;60.50;16.50;100188.00;;;;4989175;28;20267;-43
2022/09/30 06:11:19;;;;;;;3.83;3.07;;;15.40;60.50;16.40;100187.00;;;;4988867;28;20212;-43
2022/09/30 06:13:46;;;;;;;4.83;3.20;;;15.40;60.60;16.40;100198.00;;;;4988983;28;20168;-43
2022/09/30 06:16:12;;;;;;;4.27;3.17;;;15.40;60.70;16.40;100199.00;;;;4989231;28;20196;-46
2022/09/30 06:18:40;;;;;;;3.87;3.10;;;15.40;60.50;16.40;100203.00;;;;4988958;28;20176;-44
2022/09/30 06:21:06;;;;;;;3.67;3.07;;;15.40;60.70;16.40;100194.00;;;;4988919;28;20534;-44
2022/09/30 06:23:33;;;;;;;5.17;2.97;;;15.40;60.70;16.40;100192.00;;;;4978696;28;20814;-44
2022/09/30 06:26:00;;;;;;;3.83;2.90;;;15.40;60.60;16.40;100200.00;;;;4969780;28;20193;-44
2022/09/30 06:28:26;;;;;;;3.37;2.77;;;15.40;60.70;16.40;100200.00;;;;4968726;28;20552;-43
2022/09/30 06:30:52;;;;;;;4.57;2.97;;;15.40;60.70;16.40;100197.00;;;;4969146;28;20181;-45
2022/09/30 06:33:18;;;;;;;3.13;2.73;;;15.40;60.80;16.40;100196.00;;;;4969306;28;20646;-45
2022/09/30 06:35:46;;;;;;;3.67;2.93;;;15.30;60.70;16.40;100211.00;;;;4969937;28;20242;-45
2022/09/30 06:38:14;;;;;;;3.63;3.00;;;15.30;60.70;16.40;100216.00;;;;4969972;28;20184;-44
2022/09/30 06:40:41;;;;;;;3.50;2.70;;;15.30;60.70;16.30;100212.00;;;;4969291;28;20170;-45
2022/09/30 06:43:07;;;;;;;4.07;2.80;;;15.30;60.80;16.30;100221.00;;;;4969449;28;20690;-44
2022/09/30 06:45:34;;;;;;;3.10;2.70;;;15.30;60.80;16.30;100222.00;;;;4969413;28;20240;-44
2022/09/30 06:48:01;;;;;;;3.70;2.90;;;15.30;60.80;16.30;100219.00;;;;4968074;28;20176;-45
2022/09/30 06:50:28;;;;;;;3.67;3.00;;;15.30;60.80;16.30;100221.00;;;;4970704;28;20169;-44
2022/09/30 06:52:58;;;;;;;4.80;2.90;;;15.30;60.80;16.30;100230.00;;;;4973003;28;20173;-43
2022/09/30 06:55:25;;;;;;;3.20;2.90;;;15.30;60.80;16.30;100239.00;;;;4972708;28;20916;-44
2022/09/30 06:57:52;;;;;;;2.93;2.63;;;15.30;60.90;16.30;100244.00;;;;4973001;28;20209;-45
2022/09/30 07:00:18;;;;;;;3.10;2.60;;;15.30;60.90;16.30;100243.00;;;;4972285;28;20177;-44
2022/09/30 07:02:44;;;;;;;3.20;2.90;;;15.30;61.00;16.30;100244.00;;;;4971368;28;20193;-44
2022/09/30 07:05:09;;;;;;;3.97;3.03;;;15.30;61.00;16.30;100241.00;;;;4972650;28;20565;-45
2022/09/30 07:07:35;;;;;;;2.90;2.70;;;15.30;61.00;16.30;100239.00;;;;4972536;28;20549;-44
2022/09/30 07:10:02;;;;;;;3.33;3.00;;;15.30;61.10;16.30;100254.00;;;;4972382;28;20205;-44
2022/09/30 07:12:28;;;;;;;3.40;3.00;;;15.30;61.10;16.30;100227.00;;;;4972651;28;20177;-44
2022/09/30 07:14:55;;;;;;;3.10;2.80;;;15.30;61.10;16.30;100255.00;;;;4971154;28;20228;-45
2022/09/30 07:17:20;;;;;;;3.10;2.80;;;15.30;61.10;16.30;100255.00;;;;4972880;28;20187;-44
2022/09/30 07:19:46;;;;;;;5.03;2.80;;;15.30;61.10;16.20;100259.00;;;;4972871;28;20819;-46
2022/09/30 07:22:28;;;;;;;3.17;2.80;;;15.30;61.10;16.20;100268.00;;;;4972451;28;20247;-45
2022/09/30 07:24:58;;;;;;;4.13;2.70;;;15.20;61.10;16.20;100266.00;;;;4972397;28;20293;-46
2022/09/30 07:27:28;;;;;;;2.80;2.60;;;15.20;61.20;16.20;100263.00;;;;4972934;28;20256;-44
2022/09/30 07:29:54;;;;;;;3.10;2.70;;;15.20;61.10;16.20;100271.00;;;;4972593;28;20169;-44
2022/09/30 07:32:20;;;;;;;2.77;2.57;;;15.20;61.10;16.20;100223.00;;;;4971921;28;20177;-45
2022/09/30 07:34:46;;;;;;;3.33;2.63;;;15.20;61.20;16.20;100281.00;;;;4972512;28;20263;-44
2022/09/30 07:37:14;;;;;;;3.70;2.80;;;15.20;61.20;16.20;100286.00;;;;4972296;28;20669;-45
2022/09/30 07:39:44;;;;;;;3.20;2.70;;;15.30;61.30;16.20;100278.00;;;;4972062;28;20185;-44
2022/09/30 07:42:10;;;;;;;3.00;2.70;;;15.20;61.20;16.20;100273.00;;;;4971801;28;20196;-45
2022/09/30 07:44:40;;;;;;;3.13;2.80;;;15.20;61.20;16.20;100271.00;;;;4971921;28;20276;-44
2022/09/30 07:47:07;;;;;;;3.73;2.90;;;15.20;61.40;16.20;100272.00;;;;4971013;28;20256;-45
2022/09/30 07:49:33;;;;;;;4.63;2.90;;;15.20;61.70;16.20;100275.00;;;;4971599;28;20696;-46
2022/09/30 07:52:00;;;;;;;6.93;3.00;;;15.20;61.90;16.20;100268.00;;;;4971286;28;20252;-44
2022/09/30 07:54:28;;;;;;;12.53;3.17;;;15.20;62.40;16.20;100274.00;;;;4971435;28;20185;-45
2022/09/30 07:56:54;;;;;;;7.23;3.37;;;15.30;62.70;16.20;100273.00;;;;4971626;28;20197;-45
2022/09/30 07:59:20;;;;;;;10.17;3.20;;;15.30;62.80;16.20;100282.00;;;;4970143;28;20672;-44
2022/09/30 08:01:46;;;;;;;4.97;2.80;;;15.40;62.90;16.20;100284.00;;;;4970118;28;20165;-44
2022/09/30 08:04:12;;;;;;;9.50;3.13;;;15.60;62.90;16.30;100280.00;;;;4971129;28;20169;-46
2022/09/30 08:06:44;;;;;;;9.53;3.00;;;15.60;62.60;16.30;100276.00;;;;4971744;28;20173;-45
2022/09/30 08:09:10;;;;;;;4.50;2.97;;;15.80;62.50;16.40;100295.00;;;;4970209;28;20157;-46
2022/09/30 08:11:36;;;;;;;3.33;2.83;;;16.00;62.40;16.50;100288.00;;;;4969428;28;20175;-44
2022/09/30 08:14:02;;;;;;;4.70;2.70;;;16.10;62.30;16.60;100295.00;;;;4971291;28;20338;-45
2022/09/30 08:16:28;;;;;;;9.63;2.77;;;16.30;62.30;16.70;100287.00;;;;4970487;28;20523;-46
2022/09/30 08:18:55;;;;;;;8.60;2.60;;;16.50;62.00;16.80;100277.00;;;;4971451;28;20702;-45
2022/09/30 08:21:20;;;;;;;4.20;2.87;;;16.60;61.80;16.90;100286.00;;;;4972049;28;20228;-44
2022/09/30 08:23:46;;;;;;;4.57;2.63;;;16.80;61.70;17.10;100280.00;;;;4971043;28;20797;-43
2022/09/30 08:26:14;;;;;;;6.13;2.93;;;16.90;61.60;17.10;100272.00;;;;4972013;28;20300;-45
2022/09/30 08:28:40;;;;;;;4.87;2.70;;;17.00;61.60;17.20;100277.00;;;;4972040;28;20191;-45
2022/09/30 08:31:10;;;;;;;5.50;2.90;;;17.20;61.70;17.30;100280.00;;;;4971833;28;20181;-45
2022/09/30 08:33:36;;;;;;;3.10;2.60;;;17.20;61.90;17.40;100274.00;;;;4971190;28;20185;-45
2022/09/30 08:36:07;;;;;;;3.57;2.60;;;17.20;62.10;17.50;100286.00;;;;4954085;28;20201;-45
2022/09/30 08:38:33;;;;;;;3.87;2.77;;;17.30;62.70;17.50;100293.00;;;;4971244;28;20587;-44
2022/09/30 08:41:40;;;;;;;5.37;2.60;;;17.30;62.90;17.60;100288.00;;;;4971550;28;20647;-45
2022/09/30 08:44:42;;;;;;;3.50;2.53;;;17.30;63.20;17.60;100298.00;;;;4969989;28;20223;-44
2022/09/30 08:47:34;;;;;;;3.53;2.53;;;17.30;63.60;17.70;100295.00;;;;4971700;28;20520;-45
2022/09/30 08:50:37;;;;;;;6.17;2.50;;;17.30;63.80;17.70;100298.00;;;;4972931;28;20173;-45
2022/09/30 08:53:12;;;;;;;3.20;2.47;;;17.30;63.80;17.50;100243.00;;;;4965934;28;20179;-44
2022/09/30 08:55:41;;;;;;;4.93;2.70;;;17.30;64.30;17.70;100285.00;;;;4920552;28;20204;-45
2022/09/30 08:58:38;;;;;;;7.50;2.40;;;17.30;64.90;17.80;100210.00;;;;4953276;28;20185;-44
2022/09/30 09:01:14;;;;;;;5.17;2.60;;;17.30;65.10;17.80;100281.00;;;;4950520;29;20182;-44
2022/09/30 09:03:40;;;;;;;4.57;2.63;;;17.40;64.90;17.80;100288.00;;;;4965487;28;20864;-45
2022/09/30 09:06:39;;;;;;;6.13;2.50;;;17.30;65.00;17.80;100290.00;;;;4967140;28;20197;-44
2022/09/30 09:09:31;;;;;;;4.33;2.30;;;17.30;65.40;17.80;100277.00;;;;4988882;28;20622;-44
2022/09/30 09:12:03;;;;;;;5.40;2.60;;;17.40;66.00;17.80;100298.00;;;;4972619;28;20173;-45
2022/09/30 09:14:54;;;;;;;7.57;2.57;;;17.40;66.30;17.90;100297.00;;;;4951049;29;20176;-44
2022/09/30 09:17:43;;;;;;;11.10;2.80;;;17.30;66.50;17.90;100289.00;;;;4949991;29;20162;-44
2022/09/30 09:20:14;;;;;;;4.13;2.57;;;17.30;66.50;17.90;100302.00;;;;4950000;29;20177;-45
2022/09/30 09:22:42;;;;;;;12.50;2.87;;;17.30;66.80;17.90;100300.00;;;;4951201;29;20198;-44
2022/09/30 09:25:16;;;;;;;13.00;3.00;;;17.30;66.50;17.90;100291.00;;;;4950737;29;20282;-44
2022/09/30 09:28:01;;;;;;;10.43;2.90;;;17.30;66.40;17.90;100293.00;;;;4950113;29;20179;-44
2022/09/30 09:30:35;;;;;;;12.00;2.67;;;17.30;66.00;17.90;100284.00;;;;4949554;29;20824;-44
2022/09/30 09:33:20;;;;;;;5.03;2.30;;;17.30;65.90;17.90;100291.00;;;;4934413;29;20167;-45
2022/09/30 09:36:10;;;;;;;5.47;2.67;;;17.30;65.90;17.90;100288.00;;;;4949761;29;20201;-45
2022/09/30 09:38:57;;;;;;;9.67;2.97;;;17.30;65.90;17.90;100288.00;;;;4936039;29;20175;-45
2022/09/30 09:41:56;;;;;;;4.70;2.20;;;17.30;65.90;17.90;100292.00;;;;4936029;29;20166;-44
2022/09/30 09:44:29;;;;;;;5.43;2.57;;;17.30;65.90;17.90;100269.00;;;;4949213;29;20159;-43
2022/09/30 09:47:12;;;;;;;3.77;2.70;;;17.30;66.00;17.90;100275.00;;;;4933739;29;20249;-43
2022/09/30 09:49:41;;;;;;;4.87;2.47;;;17.30;66.00;17.90;100272.00;;;;4950815;28;20176;-46
2022/09/30 09:52:12;;;;;;;5.37;2.30;;;17.30;65.90;17.90;100279.00;;;;4949411;29;20526;-43
2022/09/30 09:54:55;;;;;;;3.60;2.33;;;17.30;65.80;18.00;100281.00;;;;4903561;28;20567;-45
2022/09/30 09:57:26;;;;;;;5.50;2.47;;;17.30;65.90;18.00;100280.00;;;;4989165;28;20231;-46
2022/09/30 09:59:57;;;;;;;5.57;2.50;;;17.30;66.00;18.00;100278.00;;;;4989857;28;20165;-43
2022/09/30 10:02:28;;;;;;;3.60;2.50;;;17.30;66.80;18.00;100285.00;;;;4989287;28;20197;-44
2022/09/30 10:05:00;;;;;;;4.03;2.30;;;17.30;65.90;18.00;100273.00;;;;4987637;28;20196;-45
2022/09/30 10:07:27;;;;;;;2.60;2.40;;;17.30;65.90;18.00;100275.00;;;;4988843;28;20192;-45
2022/09/30 10:10:16;;;;;;;4.93;2.43;;;17.40;65.80;18.00;100284.00;;;;4989223;28;20180;-45
2022/09/30 10:12:42;;;;;;;5.50;2.40;;;17.30;65.80;18.00;100277.00;;;;4989199;28;20192;-45
2022/09/30 10:15:23;;;;;;;4.37;2.30;;;17.30;65.80;18.00;100276.00;;;;4987671;28;20197;-45
2022/09/30 10:17:59;;;;;;;5.30;2.40;;;17.30;65.80;18.00;100279.00;;;;4989279;28;20224;-45
2022/09/30 10:20:33;;;;;;;5.67;2.30;;;17.30;65.80;18.00;100250.00;;;;4987991;28;20229;-46
2022/09/30 10:23:18;;;;;;;4.33;2.73;;;17.40;65.90;18.00;100276.00;;;;4987905;28;20665;-45
2022/09/30 10:26:03;;;;;;;4.20;2.43;;;17.40;65.90;18.00;100274.00;;;;4977152;28;20590;-44
2022/09/30 10:28:43;;;;;;;4.70;2.20;;;17.40;66.00;17.80;100267.00;;;;4993126;28;20250;-44
2022/09/30 10:31:37;;;;;;;4.63;2.23;;;17.40;66.00;18.10;100267.00;;;;4991936;28;20573;-44
2022/09/30 10:34:32;;;;;;;5.40;2.30;;;17.40;66.00;18.00;100269.00;;;;4992143;28;20166;-45
2022/09/30 10:37:01;;;;;;;4.80;2.40;;;17.40;65.90;18.10;100265.00;;;;4991346;28;20193;-45
2022/09/30 10:39:31;;;;;;;7.30;2.43;;;17.40;66.00;18.10;100277.00;;;;4975580;28;20182;-44
2022/09/30 10:42:07;;;;;;;3.83;2.40;;;17.40;66.00;18.10;100265.00;;;;4992461;28;20226;-44
2022/09/30 10:44:42;;;;;;;4.17;2.40;;;17.40;66.00;18.10;100267.00;;;;4991391;28;20211;-44
2022/09/30 10:47:08;;;;;;;4.57;2.20;;;17.40;66.00;18.10;100250.00;;;;4986794;28;20175;-45
2022/09/30 10:50:07;;;;;;;4.07;2.00;;;17.40;66.00;18.10;100260.00;;;;4971308;28;20528;-43
2022/09/30 10:52:36;;;;;;;4.80;2.30;;;17.50;66.10;18.10;100265.00;;;;4971583;28;20176;-44
2022/09/30 10:55:40;;;;;;;3.67;2.27;;;17.50;66.60;18.10;100263.00;;;;4881293;28;20200;-45
2022/09/30 10:58:22;;;;;;;6.00;2.27;;;17.50;66.80;18.20;100266.00;;;;4971411;28;20207;-44
2022/09/30 11:00:52;;;;;;;6.23;2.30;;;17.50;66.70;18.20;100252.00;;;;4971557;28;20159;-43
2022/09/30 11:03:22;;;;;;;7.33;2.10;;;17.50;66.80;18.20;100256.00;;;;4971204;28;20206;-46
2022/09/30 11:05:48;;;;;;;5.10;2.07;;;17.50;66.80;18.20;100262.00;;;;4987816;28;20192;-45
2022/09/30 11:08:52;;;;;;;7.27;2.37;;;17.60;67.20;18.20;100265.00;;;;4987353;28;20175;-45
2022/09/30 11:11:27;;;;;;;6.43;2.47;;;17.60;67.90;18.20;100267.00;;;;4970712;28;20193;-45
2022/09/30 11:14:28;;;;;;;7.90;2.60;;;17.60;67.80;18.30;100271.00;;;;4989667;28;20203;-44